createdAt,value
2019-03-01T00:01:35.084Z,0.20
2019-03-01T00:04:11.122Z,0.87
2019-03-01T00:06:44.220Z,1.50
2019-03-01T00:09:57.429Z,2.47
2019-03-01T00:13:06.794Z,0.93
2019-03-01T00:16:07.205Z,1.27
2019-03-01T00:18:46.486Z,0.40
2019-03-01T00:21:53.739Z,1.00
2019-03-01T00:24:42.420Z,1.13
2019-03-01T00:27:38.941Z,0.73
2019-03-01T00:30:40.739Z,1.27
2019-03-01T00:33:31.385Z,0.83
2019-03-01T00:36:36.461Z,1.03
2019-03-01T00:39:47.144Z,1.80
2019-03-01T00:42:22.610Z,1.23
2019-03-01T00:44:51.470Z,1.27
2019-03-01T00:47:20.480Z,3.20
2019-03-01T00:49:49.645Z,1.47
2019-03-01T00:52:18.480Z,0.80
2019-03-01T00:54:47.280Z,1.50
2019-03-01T00:57:16.355Z,0.77
2019-03-01T00:59:45.145Z,0.67
2019-03-01T01:02:13.985Z,1.50
2019-03-01T01:04:43.416Z,1.57
2019-03-01T01:07:12.222Z,2.60
2019-03-01T01:09:41.169Z,2.23
2019-03-01T01:12:10.420Z,2.30
2019-03-01T01:14:39.312Z,1.07
2019-03-01T01:17:08.242Z,0.63
2019-03-01T01:19:37.304Z,0.60
2019-03-01T01:22:06.196Z,0.53
2019-03-01T01:24:35.114Z,0.27
2019-03-01T01:27:04.388Z,1.00
2019-03-01T01:29:33.336Z,2.10
2019-03-01T01:32:02.310Z,1.50
2019-03-01T01:34:31.361Z,2.10
2019-03-01T01:37:00.260Z,4.27
2019-03-01T01:39:29.087Z,5.00
2019-03-01T01:41:58.049Z,5.47
2019-03-01T01:44:26.946Z,1.47
2019-03-01T01:46:55.725Z,3.30
2019-03-01T01:49:24.709Z,2.00
2019-03-01T01:51:53.576Z,5.20
2019-03-01T01:54:22.395Z,4.77
2019-03-01T01:56:51.273Z,2.33
2019-03-01T01:59:20.084Z,1.80
2019-03-01T02:01:48.992Z,5.63
2019-03-01T02:04:18.045Z,2.53
2019-03-01T02:06:46.987Z,3.50
2019-03-01T02:09:21.993Z,5.30
2019-03-01T02:11:50.918Z,2.10
2019-03-01T02:14:19.698Z,3.67
2019-03-01T02:16:48.765Z,2.70
2019-03-01T02:19:17.757Z,5.03
2019-03-01T02:21:46.795Z,4.17
2019-03-01T02:24:15.915Z,4.10
2019-03-01T02:26:44.736Z,2.80
2019-03-01T02:29:13.648Z,4.80
2019-03-01T02:31:51.293Z,3.70
2019-03-01T02:34:20.122Z,3.33
2019-03-01T02:36:49.236Z,2.70
2019-03-01T02:39:18.330Z,2.50
2019-03-01T02:41:47.169Z,3.87
2019-03-01T02:44:15.970Z,2.73
2019-03-01T02:46:45.076Z,3.87
2019-03-01T02:49:13.920Z,3.43
2019-03-01T02:51:42.782Z,3.23
2019-03-01T02:54:11.860Z,4.93
2019-03-01T02:56:40.708Z,3.03
2019-03-01T02:59:09.530Z,2.07
2019-03-01T03:01:38.501Z,3.40
2019-03-01T03:04:07.417Z,2.17
2019-03-01T03:06:44.339Z,2.10
2019-03-01T03:09:13.439Z,2.10
2019-03-01T03:11:42.362Z,1.73
2019-03-01T03:14:11.458Z,4.17
2019-03-01T03:16:40.376Z,2.47
2019-03-01T03:19:09.270Z,1.07
2019-03-01T03:21:38.331Z,3.17
2019-03-01T03:24:07.242Z,4.07
2019-03-01T03:26:36.385Z,2.03
2019-03-01T03:29:05.385Z,2.30
2019-03-01T03:31:34.278Z,1.63
2019-03-01T03:34:03.078Z,1.87
2019-03-01T03:36:32.217Z,3.80
2019-03-01T03:39:01.020Z,3.33
2019-03-01T03:41:30.081Z,3.50
2019-03-01T03:43:59.510Z,2.27
2019-03-01T03:46:28.289Z,1.77
2019-03-01T03:48:57.149Z,1.77
2019-03-01T03:51:26.473Z,4.13
2019-03-01T03:53:55.337Z,1.00
2019-03-01T03:56:24.200Z,0.73
2019-03-01T03:58:53.345Z,5.60
2019-03-01T04:01:22.350Z,2.63
2019-03-01T04:03:51.372Z,4.97
2019-03-01T04:06:20.526Z,3.37
2019-03-01T04:08:49.578Z,4.83
2019-03-01T04:11:18.400Z,3.70
2019-03-01T04:13:47.529Z,2.03
2019-03-01T04:16:16.320Z,5.70
2019-03-01T04:18:45.128Z,3.03
2019-03-01T04:21:14.193Z,0.80
2019-03-01T04:23:42.996Z,1.77
2019-03-01T04:26:11.925Z,7.42
2019-03-01T04:28:41.076Z,4.17
2019-03-01T04:31:10.075Z,3.80
2019-03-01T04:33:39.236Z,5.03
2019-03-01T04:36:08.366Z,5.80
2019-03-01T04:38:37.180Z,6.40
2019-03-01T04:41:06.081Z,2.43
2019-03-01T04:43:35.145Z,3.93
2019-03-01T04:46:04.072Z,3.77
2019-03-01T04:48:32.877Z,3.57
2019-03-01T04:51:02.028Z,2.50
2019-03-01T04:53:30.837Z,3.80
2019-03-01T04:55:59.664Z,2.20
2019-03-01T04:58:28.752Z,3.33
2019-03-01T05:00:57.614Z,0.93
2019-03-01T05:03:26.511Z,1.03
2019-03-01T05:05:55.793Z,1.83
2019-03-01T05:08:24.688Z,2.63
2019-03-01T05:10:53.588Z,6.17
2019-03-01T05:13:22.737Z,6.20
2019-03-01T05:15:51.571Z,2.73
2019-03-01T05:18:20.405Z,0.80
2019-03-01T05:20:49.641Z,2.10
2019-03-01T05:23:18.726Z,1.67
2019-03-01T05:25:47.817Z,1.50
2019-03-01T05:28:16.944Z,2.73
2019-03-01T05:30:45.809Z,2.50
2019-03-01T05:33:14.657Z,4.13
2019-03-01T05:35:43.898Z,5.20
2019-03-01T05:38:21.314Z,4.13
2019-03-01T05:40:43.289Z,1.73
2019-03-01T05:43:12.328Z,3.80
2019-03-01T05:45:41.122Z,2.80
2019-03-01T05:48:09.994Z,5.07
2019-03-01T05:50:39.110Z,4.97
2019-03-01T05:53:07.947Z,2.00
2019-03-01T05:55:36.853Z,4.00
2019-03-01T05:58:41.658Z,3.00
2019-03-01T06:01:44.185Z,3.40
2019-03-01T06:04:26.393Z,2.27
2019-03-01T06:07:50.877Z,1.33
2019-03-01T06:10:43.649Z,3.33
2019-03-01T06:13:41.883Z,4.33
2019-03-01T06:16:35.759Z,2.70
2019-03-01T06:19:37.588Z,2.37
2019-03-01T06:22:24.201Z,4.07
2019-03-01T06:25:17.874Z,5.13
2019-03-01T06:28:04.434Z,2.13
2019-03-01T06:31:29.988Z,4.67
2019-03-01T06:34:21.418Z,4.40
2019-03-01T06:36:59.945Z,5.07
2019-03-01T06:40:02.007Z,4.13
2019-03-01T06:42:53.083Z,1.80
2019-03-01T06:45:47.085Z,4.97
2019-03-01T06:48:25.962Z,1.00
2019-03-01T06:50:58.581Z,3.10
2019-03-01T06:53:27.473Z,6.30
2019-03-01T06:55:59.842Z,4.23
2019-03-01T06:58:37.109Z,3.57
2019-03-01T07:01:15.414Z,3.30
2019-03-01T07:03:46.489Z,3.87
2019-03-01T07:06:15.336Z,3.57
2019-03-01T07:08:44.376Z,3.10
2019-03-01T07:11:13.394Z,4.13
2019-03-01T07:13:42.317Z,4.90
2019-03-01T07:16:11.371Z,3.70
2019-03-01T07:18:40.201Z,1.87
2019-03-01T07:21:09.248Z,3.67
2019-03-01T07:23:38.321Z,4.53
2019-03-01T07:26:07.318Z,4.87
2019-03-01T07:28:36.409Z,3.23
2019-03-01T07:31:07.067Z,3.47
2019-03-01T07:33:37.504Z,5.73
2019-03-01T07:36:07.267Z,2.33
2019-03-01T07:38:36.105Z,3.50
2019-03-01T07:41:05.058Z,3.80
2019-03-01T07:43:34.751Z,4.50
2019-03-01T07:46:03.604Z,3.43
2019-03-01T07:48:32.530Z,4.93
2019-03-01T07:51:02.425Z,3.70
2019-03-01T07:53:36.162Z,3.03
2019-03-01T07:56:05.294Z,2.33
2019-03-01T07:58:34.424Z,2.60
2019-03-01T08:01:03.486Z,1.40
2019-03-01T08:03:32.606Z,0.97
2019-03-01T08:06:02.001Z,1.80
2019-03-01T08:08:31.184Z,2.03
2019-03-01T08:11:00.249Z,1.80
2019-03-01T08:13:29.195Z,1.07
2019-03-01T08:15:58.198Z,0.67
2019-03-01T08:18:30.009Z,1.50
2019-03-01T08:20:59.633Z,0.13
2019-03-01T08:23:34.775Z,1.67
2019-03-01T08:26:03.449Z,0.60
2019-03-01T08:28:33.280Z,0.93
2019-03-01T08:31:03.241Z,0.70
2019-03-01T08:33:32.197Z,0.60
2019-03-01T08:36:02.430Z,0.30
2019-03-01T08:38:33.391Z,0.30
2019-03-01T08:41:02.569Z,1.20
2019-03-01T08:43:31.456Z,0.50
2019-03-01T08:46:00.353Z,0.93
2019-03-01T08:48:30.533Z,0.40
2019-03-01T08:51:00.075Z,0.33
2019-03-01T08:53:28.925Z,0.33
2019-03-01T08:55:58.457Z,0.73
2019-03-01T08:58:27.358Z,0.20
2019-03-01T09:00:59.721Z,0.40
2019-03-01T09:03:30.958Z,0.30
2019-03-01T09:05:59.792Z,1.17
2019-03-01T09:08:28.671Z,0.43
2019-03-01T09:10:57.641Z,1.03
2019-03-01T09:13:26.537Z,0.40
2019-03-01T09:15:55.351Z,0.57
2019-03-01T09:18:24.353Z,1.40
2019-03-01T09:20:53.149Z,0.30
2019-03-01T09:23:27.041Z,0.30
2019-03-01T09:25:52.911Z,0.83
2019-03-01T09:28:21.718Z,0.80
2019-03-01T09:30:50.951Z,1.53
2019-03-01T09:33:21.600Z,0.30
2019-03-01T09:36:04.728Z,0.77
2019-03-01T09:38:33.967Z,0.70
2019-03-01T09:41:04.499Z,0.27
2019-03-01T09:43:33.632Z,0.30
2019-03-01T09:46:03.196Z,1.83
2019-03-01T09:48:32.260Z,0.50
2019-03-01T09:51:01.220Z,0.60
2019-03-01T09:53:30.527Z,0.43
2019-03-01T09:56:00.707Z,0.50
2019-03-01T09:58:29.705Z,0.30
2019-03-01T10:01:02.988Z,2.00
2019-03-01T10:03:32.009Z,0.30
2019-03-01T10:06:00.870Z,1.83
2019-03-01T10:08:29.885Z,0.40
2019-03-01T10:10:58.706Z,0.30
2019-03-01T10:13:27.488Z,0.30
2019-03-01T10:15:56.496Z,1.13
2019-03-01T10:18:25.688Z,0.30
2019-03-01T10:20:54.497Z,0.70
2019-03-01T10:23:23.674Z,0.20
2019-03-01T10:25:52.985Z,0.30
2019-03-01T10:28:21.852Z,0.50
2019-03-01T10:30:51.013Z,2.73
2019-03-01T10:33:19.906Z,0.20
2019-03-01T10:35:49.121Z,0.97
2019-03-01T10:38:18.194Z,0.83
2019-03-01T10:40:46.989Z,0.30
2019-03-01T10:43:15.843Z,0.20
2019-03-01T10:45:45.077Z,0.37
2019-03-01T10:48:13.933Z,0.27
2019-03-01T10:50:42.752Z,1.20
2019-03-01T10:53:11.853Z,0.20
2019-03-01T10:55:40.733Z,0.40
2019-03-01T10:58:09.600Z,0.23
2019-03-01T11:00:38.843Z,1.70
2019-03-01T11:03:07.675Z,0.20
2019-03-01T11:05:36.640Z,0.50
2019-03-01T11:08:25.110Z,0.40
2019-03-01T11:10:54.367Z,0.40
2019-03-01T11:13:23.241Z,0.43
2019-03-01T11:15:52.108Z,0.30
2019-03-01T11:18:20.984Z,0.50
2019-03-01T11:20:49.864Z,1.30
2019-03-01T11:23:19.092Z,0.70
2019-03-01T11:25:47.984Z,0.60
2019-03-01T11:28:16.930Z,0.40
2019-03-01T11:30:45.928Z,1.53
2019-03-01T11:33:14.899Z,0.20
2019-03-01T11:35:43.892Z,0.50
2019-03-01T11:38:13.320Z,0.33
2019-03-01T11:40:42.356Z,0.90
2019-03-01T11:43:11.284Z,0.20
2019-03-01T11:45:40.617Z,0.30
2019-03-01T11:48:09.659Z,0.30
2019-03-01T11:50:38.704Z,1.00
2019-03-01T11:53:07.860Z,0.83
2019-03-01T11:55:36.756Z,1.17
2019-03-01T11:58:05.747Z,0.20
2019-03-01T12:00:34.814Z,1.03
2019-03-01T12:03:03.853Z,0.20
2019-03-01T12:05:32.797Z,1.03
2019-03-01T12:08:01.877Z,0.33
2019-03-01T12:10:31.022Z,0.53
2019-03-01T12:12:59.933Z,0.93
2019-03-01T12:15:29.106Z,0.67
2019-03-01T12:17:58.027Z,0.53
2019-03-01T12:20:26.993Z,0.20
2019-03-01T12:22:56.149Z,0.20
2019-03-01T12:25:24.977Z,0.50
2019-03-01T12:27:53.864Z,0.40
2019-03-01T12:30:23.145Z,0.30
2019-03-01T12:32:52.025Z,1.27
2019-03-01T12:35:20.889Z,1.23
2019-03-01T12:37:50.182Z,0.30
2019-03-01T12:40:21.891Z,0.30
2019-03-01T12:42:50.929Z,0.57
2019-03-01T12:45:19.952Z,1.27
2019-03-01T12:47:48.832Z,0.30
2019-03-01T12:50:17.961Z,1.47
2019-03-01T12:52:46.838Z,0.90
2019-03-01T12:55:17.300Z,0.83
2019-03-01T12:57:46.179Z,0.30
2019-03-01T13:00:18.101Z,0.20
2019-03-01T13:02:46.976Z,0.20
2019-03-01T13:05:15.964Z,0.90
2019-03-01T13:07:45.097Z,0.30
2019-03-01T13:10:16.903Z,0.40
2019-03-01T13:12:46.113Z,0.40
2019-03-01T13:15:15.074Z,0.40
2019-03-01T13:17:44.231Z,1.33
2019-03-01T13:20:14.788Z,1.10
2019-03-01T13:22:43.834Z,0.93
2019-03-01T13:25:12.899Z,0.53
2019-03-01T13:27:42.093Z,0.20
2019-03-01T13:30:16.325Z,0.30
2019-03-01T13:32:45.602Z,0.50
2019-03-01T13:35:15.137Z,0.30
2019-03-01T13:37:44.148Z,1.13
2019-03-01T13:40:14.597Z,0.20
2019-03-01T13:42:43.742Z,0.20
2019-03-01T13:45:17.232Z,0.30
2019-03-01T13:47:46.189Z,0.30
2019-03-01T13:50:16.475Z,0.20
2019-03-01T13:52:45.732Z,0.20
2019-03-01T13:55:15.106Z,0.20
2019-03-01T13:57:46.101Z,0.20
2019-03-01T14:00:16.902Z,0.47
2019-03-01T14:02:46.948Z,1.03
2019-03-01T14:05:17.376Z,0.67
2019-03-01T14:07:46.934Z,0.60
2019-03-01T14:10:18.652Z,0.40
2019-03-01T14:12:47.632Z,1.73
2019-03-01T14:15:17.318Z,0.50
2019-03-01T14:17:46.249Z,0.30
2019-03-01T14:20:20.326Z,0.20
2019-03-01T14:22:49.101Z,0.30
2019-03-01T14:25:18.692Z,0.20
2019-03-01T14:27:47.685Z,0.20
2019-03-01T14:30:18.610Z,0.20
2019-03-01T14:32:47.515Z,0.30
2019-03-01T14:35:16.456Z,0.30
2019-03-01T14:37:46.324Z,0.40
2019-03-01T14:40:19.062Z,0.43
2019-03-01T14:42:47.701Z,0.30
2019-03-01T14:45:19.306Z,0.20
2019-03-01T14:47:48.543Z,1.03
2019-03-01T14:50:18.701Z,0.23
2019-03-01T14:52:47.671Z,0.20
2019-03-01T14:55:19.732Z,0.20
2019-03-01T14:57:56.652Z,0.20
2019-03-01T15:00:38.797Z,0.20
2019-03-01T15:03:33.353Z,0.20
2019-03-01T15:06:02.618Z,0.30
2019-03-01T15:08:50.781Z,0.20
2019-03-01T15:11:21.929Z,0.73
2019-03-01T15:13:52.393Z,0.80
2019-03-01T15:16:21.445Z,0.30
2019-03-01T15:18:50.811Z,0.20
2019-03-01T15:21:19.736Z,0.20
2019-03-01T15:23:48.681Z,0.30
2019-03-01T15:26:17.746Z,0.23
2019-03-01T15:28:55.271Z,0.30
2019-03-01T15:31:22.879Z,0.20
2019-03-01T15:33:51.789Z,0.90
2019-03-01T15:36:20.668Z,0.20
2019-03-01T15:38:50.066Z,0.20
2019-03-01T15:41:18.918Z,0.83
2019-03-01T15:43:47.733Z,0.30
2019-03-01T15:46:17.979Z,0.20
2019-03-01T15:48:47.159Z,0.40
2019-03-01T15:51:16.133Z,0.30
2019-03-01T15:53:45.229Z,0.60
2019-03-01T15:56:14.374Z,0.40
2019-03-01T15:58:43.610Z,0.40
2019-03-01T16:01:12.714Z,1.27
2019-03-01T16:03:42.392Z,2.30
2019-03-01T16:06:17.254Z,1.90
2019-03-01T16:08:43.983Z,0.23
2019-03-01T16:11:13.590Z,1.17
2019-03-01T16:13:47.728Z,0.17
2019-03-01T16:16:14.455Z,0.13
2019-03-01T16:18:43.588Z,0.50
2019-03-01T16:21:12.545Z,0.20
2019-03-01T16:23:41.778Z,0.83
2019-03-01T16:26:10.673Z,0.23
2019-03-01T16:28:39.472Z,0.20
2019-03-01T16:31:08.529Z,1.83
2019-03-01T16:33:37.566Z,0.30
2019-03-01T16:36:12.532Z,0.60
2019-03-01T16:38:44.734Z,0.30
2019-03-01T16:41:11.897Z,0.30
2019-03-01T16:43:41.092Z,0.20
2019-03-01T16:46:09.906Z,0.20
2019-03-01T16:48:38.773Z,0.30
2019-03-01T16:51:10.077Z,0.40
2019-03-01T16:53:40.726Z,0.60
2019-03-01T16:56:09.428Z,0.60
2019-03-01T16:58:38.313Z,0.37
2019-03-01T17:01:07.123Z,0.30
2019-03-01T17:03:36.211Z,0.40
2019-03-01T17:06:05.125Z,1.00
2019-03-01T17:08:36.399Z,0.20
2019-03-01T17:11:05.876Z,0.20
2019-03-01T17:13:35.634Z,0.27
2019-03-01T17:16:04.706Z,0.30
2019-03-01T17:18:34.056Z,0.20
2019-03-01T17:21:02.871Z,0.47
2019-03-01T17:23:31.717Z,0.20
2019-03-01T17:26:00.780Z,1.47
2019-03-01T17:28:29.686Z,0.20
2019-03-01T17:30:58.563Z,0.20
2019-03-01T17:33:27.725Z,0.20
2019-03-01T17:35:56.625Z,0.45
2019-03-01T17:38:25.481Z,0.43
2019-03-01T17:40:54.692Z,0.20
2019-03-01T17:43:23.584Z,0.20
2019-03-01T17:45:54.376Z,0.20
2019-03-01T17:48:23.095Z,0.20
2019-03-01T17:50:52.143Z,0.20
2019-03-01T17:53:21.008Z,2.23
2019-03-01T17:55:50.044Z,0.10
2019-03-01T17:58:18.881Z,1.03
2019-03-01T18:00:47.840Z,0.20
2019-03-01T18:03:17.276Z,0.17
2019-03-01T18:05:46.161Z,1.60
2019-03-01T18:08:15.000Z,0.30
2019-03-01T18:10:44.179Z,0.30
2019-03-01T18:13:15.011Z,0.20
2019-03-01T18:15:44.990Z,0.40
2019-03-01T18:18:14.430Z,0.47
2019-03-01T18:20:43.259Z,0.37
2019-03-01T18:23:12.060Z,0.27
2019-03-01T18:25:40.931Z,0.47
2019-03-01T18:28:09.796Z,0.57
2019-03-01T18:30:38.665Z,0.53
2019-03-01T18:33:07.871Z,0.83
2019-03-01T18:35:36.860Z,0.30
2019-03-01T18:38:05.741Z,0.30
2019-03-01T18:40:34.965Z,0.40
2019-03-01T18:43:03.764Z,0.30
2019-03-01T18:45:32.664Z,0.20
2019-03-01T18:48:04.968Z,0.50
2019-03-01T18:50:32.449Z,0.57
2019-03-01T18:53:03.571Z,0.20
2019-03-01T18:55:32.269Z,0.20
2019-03-01T18:58:01.204Z,0.20
2019-03-01T19:00:32.597Z,0.40
2019-03-01T19:03:04.438Z,0.60
2019-03-01T19:05:36.575Z,0.80
2019-03-01T19:08:06.094Z,0.30
2019-03-01T19:10:35.271Z,0.90
2019-03-01T19:13:04.113Z,0.50
2019-03-01T19:15:33.260Z,0.20
2019-03-01T19:18:02.240Z,0.47
2019-03-01T19:20:31.545Z,0.40
2019-03-01T19:23:00.742Z,0.60
2019-03-01T19:25:29.732Z,0.40
2019-03-01T19:27:58.723Z,0.30
2019-03-01T19:30:27.975Z,0.63
2019-03-01T19:32:59.027Z,0.60
2019-03-01T19:35:29.812Z,0.27
2019-03-01T19:37:58.718Z,0.40
2019-03-01T19:40:30.558Z,0.30
2019-03-01T19:42:59.443Z,0.43
2019-03-01T19:45:28.604Z,0.70
2019-03-01T19:47:58.133Z,0.57
2019-03-01T19:50:28.316Z,0.43
2019-03-01T19:52:57.336Z,0.40
2019-03-01T19:55:26.317Z,0.60
2019-03-01T19:57:55.417Z,1.57
2019-03-01T20:00:24.840Z,0.30
2019-03-01T20:02:53.914Z,0.70
2019-03-01T20:05:27.956Z,0.50
2019-03-01T20:07:55.618Z,0.47
2019-03-01T20:10:24.991Z,0.20
2019-03-01T20:12:53.927Z,0.30
2019-03-01T20:15:23.780Z,0.93
2019-03-01T20:17:52.661Z,0.60
2019-03-01T20:20:21.864Z,0.40
2019-03-01T20:22:54.119Z,0.40
2019-03-01T20:25:22.525Z,0.40
2019-03-01T20:27:51.321Z,0.20
2019-03-01T20:30:39.620Z,0.20
2019-03-01T20:33:08.538Z,0.37
2019-03-01T20:35:37.472Z,0.40
2019-03-01T20:38:06.563Z,0.30
2019-03-01T20:40:35.346Z,0.80
2019-03-01T20:43:06.829Z,0.53
2019-03-01T20:45:34.999Z,1.50
2019-03-01T20:48:03.968Z,0.30
2019-03-01T20:50:32.883Z,0.37
2019-03-01T20:53:01.766Z,0.60
2019-03-01T20:55:33.263Z,0.40
2019-03-01T20:58:03.073Z,0.67
2019-03-01T21:00:32.105Z,0.40
2019-03-01T21:03:00.953Z,0.50
2019-03-01T21:05:30.564Z,0.30
2019-03-01T21:07:59.853Z,0.40
2019-03-01T21:10:28.765Z,0.20
2019-03-01T21:12:57.562Z,0.40
2019-03-01T21:15:27.245Z,0.97
2019-03-01T21:17:56.866Z,0.30
2019-03-01T21:20:26.840Z,0.20
2019-03-01T21:22:56.069Z,0.20
2019-03-01T21:25:25.033Z,0.20
2019-03-01T21:27:53.977Z,0.20
2019-03-01T21:30:25.178Z,0.20
2019-03-01T21:32:54.172Z,0.10
2019-03-01T21:35:23.175Z,0.43
2019-03-01T21:37:52.703Z,0.20
2019-03-01T21:40:21.591Z,1.13
2019-03-01T21:42:52.984Z,0.60
2019-03-01T21:45:21.836Z,0.20
2019-03-01T21:47:51.738Z,0.70
2019-03-01T21:50:20.651Z,0.20
2019-03-01T21:52:49.753Z,0.20
2019-03-01T21:55:19.180Z,0.20
2019-03-01T21:57:48.060Z,0.10
2019-03-01T22:00:19.324Z,0.30
2019-03-01T22:02:52.788Z,0.53
2019-03-01T22:05:19.692Z,0.20
2019-03-01T22:07:48.924Z,0.20
2019-03-01T22:10:18.232Z,0.20
2019-03-01T22:12:47.223Z,0.40
2019-03-01T22:15:21.469Z,0.20
2019-03-01T22:17:49.602Z,0.47
2019-03-01T22:20:18.928Z,0.30
2019-03-01T22:22:47.813Z,0.53
2019-03-01T22:25:16.660Z,0.27
2019-03-01T22:27:45.992Z,2.20
2019-03-01T22:30:19.624Z,0.30
2019-03-01T22:32:48.286Z,0.20
2019-03-01T22:35:17.141Z,0.30
2019-03-01T22:37:46.938Z,0.20
2019-03-01T22:40:16.326Z,0.20
2019-03-01T22:42:45.831Z,0.40
2019-03-01T22:45:15.935Z,0.20
2019-03-01T22:47:45.098Z,0.30
2019-03-01T22:50:14.862Z,0.20
2019-03-01T22:52:43.797Z,0.20
2019-03-01T22:55:14.656Z,0.20
2019-03-01T22:57:44.830Z,0.20
2019-03-01T23:00:57.977Z,0.30
2019-03-01T23:03:25.463Z,0.20
2019-03-01T23:05:54.289Z,1.13
2019-03-01T23:08:23.427Z,0.20
2019-03-01T23:10:53.816Z,1.73
2019-03-01T23:13:23.222Z,0.30
2019-03-01T23:15:52.365Z,0.20
2019-03-01T23:18:21.285Z,0.30
2019-03-01T23:20:50.177Z,0.40
2019-03-01T23:23:23.819Z,0.40
2019-03-01T23:25:49.808Z,1.47
2019-03-01T23:28:18.924Z,0.63
2019-03-01T23:30:47.994Z,0.20
2019-03-01T23:33:16.789Z,0.40
2019-03-01T23:35:45.739Z,0.20
2019-03-01T23:38:15.759Z,0.53
2019-03-01T23:40:44.794Z,0.47
2019-03-01T23:43:13.594Z,0.50
2019-03-01T23:45:42.638Z,0.30
2019-03-01T23:48:13.646Z,2.50
2019-03-01T23:50:42.033Z,0.53
2019-03-01T23:53:11.263Z,0.30
2019-03-01T23:55:40.281Z,0.30
2019-03-01T23:58:09.252Z,0.23
